sensor_id;sensor_type;location;lat;lon;timestamp;pressure;altitude;pressure_sealevel;temperature;humidity
19510;BME280;9896;42.486;26.506;2022-11-18T00:00:25;98841.47;;;7.24;100.00
19510;BME280;9896;42.486;26.506;2022-11-18T00:02:50;98839.16;;;7.34;100.00
19510;BME280;9896;42.486;26.506;2022-11-18T00:05:17;98841.59;;;7.42;100.00
19510;BME280;9896;42.486;26.506;2022-11-18T00:07:42;98829.13;;;7.30;100.00
19510;BME280;9896;42.486;26.506;2022-11-18T00:10:08;98834.78;;;7.46;100.00
19510;BME280;9896;42.486;26.506;2022-11-18T00:12:33;98845.13;;;7.36;100.00
19510;BME280;9896;42.486;26.506;2022-11-18T00:15:18;98837.72;;;7.38;100.00
19510;BME280;9896;42.486;26.506;2022-11-18T00:17:43;98833.81;;;7.41;100.00
19510;BME280;9896;42.486;26.506;2022-11-18T00:20:09;98836.25;;;7.42;100.00
19510;BME280;9896;42.486;26.506;2022-11-18T00:22:34;98834.84;;;7.40;100.00
19510;BME280;9896;42.486;26.506;2022-11-18T00:25:01;98832.84;;;7.29;100.00
19510;BME280;9896;42.486;26.506;2022-11-18T00:27:29;98832.13;;;7.53;100.00
19510;BME280;9896;42.486;26.506;2022-11-18T00:29:56;98845.13;;;7.36;100.00
19510;BME280;9896;42.486;26.506;2022-11-18T00:32:22;98846.75;;;7.37;100.00
19510;BME280;9896;42.486;26.506;2022-11-18T00:34:47;98843.28;;;7.37;100.00
19510;BME280;9896;42.486;26.506;2022-11-18T00:37:12;98846.75;;;7.37;100.00
19510;BME280;9896;42.486;26.506;2022-11-18T00:39:38;98854.56;;;7.26;100.00
19510;BME280;9896;42.486;26.506;2022-11-18T00:42:03;98851.91;;;7.26;100.00
19510;BME280;9896;42.486;26.506;2022-11-18T00:44:47;98853.34;;;7.22;100.00
19510;BME280;9896;42.486;26.506;2022-11-18T00:47:13;98847.75;;;7.43;100.00
19510;BME280;9896;42.486;26.506;2022-11-18T00:49:38;98856.38;;;7.45;100.00
19510;BME280;9896;42.486;26.506;2022-11-18T00:52:04;98857.47;;;7.69;100.00
19510;BME280;9896;42.486;26.506;2022-11-18T00:54:30;98856.47;;;7.63;100.00
19510;BME280;9896;42.486;26.506;2022-11-18T00:56:56;98863.69;;;7.56;100.00
19510;BME280;9896;42.486;26.506;2022-11-18T00:59:21;98855.50;;;7.51;100.00
19510;BME280;9896;42.486;26.506;2022-11-18T01:01:47;98863.38;;;7.26;100.00
19510;BME280;9896;42.486;26.506;2022-11-18T01:04:13;98856.69;;;7.11;100.00
19510;BME280;9896;42.486;26.506;2022-11-18T01:06:38;98863.88;;;6.97;100.00
19510;BME280;9896;42.486;26.506;2022-11-18T01:09:04;98860.19;;;7.05;100.00
19510;BME280;9896;42.486;26.506;2022-11-18T01:11:29;98853.25;;;6.90;100.00
19510;BME280;9896;42.486;26.506;2022-11-18T01:14:27;98852.66;;;6.88;100.00
19510;BME280;9896;42.486;26.506;2022-11-18T01:16:54;98849.03;;;7.27;100.00
19510;BME280;9896;42.486;26.506;2022-11-18T01:19:20;98848.03;;;7.22;100.00
19510;BME280;9896;42.486;26.506;2022-11-18T01:21:46;98838.44;;;7.01;100.00
19510;BME280;9896;42.486;26.506;2022-11-18T01:24:11;98839.72;;;6.92;100.00
19510;BME280;9896;42.486;26.506;2022-11-18T01:26:37;98835.59;;;7.03;100.00
19510;BME280;9896;42.486;26.506;2022-11-18T01:29:02;98846.03;;;7.04;100.00
19510;BME280;9896;42.486;26.506;2022-11-18T01:31:28;98838.81;;;7.18;100.00
19510;BME280;9896;42.486;26.506;2022-11-18T01:33:53;98841.03;;;7.27;100.00
19510;BME280;9896;42.486;26.506;2022-11-18T01:36:21;98834.88;;;7.27;100.00
19510;BME280;9896;42.486;26.506;2022-11-18T01:38:48;98832.66;;;7.24;100.00
19510;BME280;9896;42.486;26.506;2022-11-18T01:41:14;98821.75;;;7.32;100.00
19510;BME280;9896;42.486;26.506;2022-11-18T01:46:23;98828.53;;;7.28;100.00
19510;BME280;9896;42.486;26.506;2022-11-18T01:48:56;98831.03;;;7.10;100.00
19510;BME280;9896;42.486;26.506;2022-11-18T01:51:30;98824.31;;;6.94;100.00
19510;BME280;9896;42.486;26.506;2022-11-18T01:54:07;98826.00;;;6.88;100.00
19510;BME280;9896;42.486;26.506;2022-11-18T01:56:39;98828.66;;;6.88;100.00
19510;BME280;9896;42.486;26.506;2022-11-18T01:59:22;98822.09;;;6.91;100.00
19510;BME280;9896;42.486;26.506;2022-11-18T02:01:48;98828.09;;;6.60;100.00
19510;BME280;9896;42.486;26.506;2022-11-18T02:04:14;98829.53;;;6.49;100.00
19510;BME280;9896;42.486;26.506;2022-11-18T02:06:41;98831.19;;;6.50;100.00
19510;BME280;9896;42.486;26.506;2022-11-18T02:09:08;98828.31;;;6.32;100.00
19510;BME280;9896;42.486;26.506;2022-11-18T02:11:33;98835.25;;;6.40;100.00
19510;BME280;9896;42.486;26.506;2022-11-18T02:14:41;98833.44;;;6.14;100.00
19510;BME280;9896;42.486;26.506;2022-11-18T02:30:20;98844.47;;;5.98;100.00
19510;BME280;9896;42.486;26.506;2022-11-18T02:38:01;98853.72;;;6.15;100.00
19510;BME280;9896;42.486;26.506;2022-11-18T02:43:37;98858.41;;;6.06;100.00
19510;BME280;9896;42.486;26.506;2022-11-18T02:46:07;98858.41;;;6.06;100.00
19510;BME280;9896;42.486;26.506;2022-11-18T02:48:38;66695.34;;;-142.12;100.00
19510;BME280;9896;42.486;26.506;2022-11-18T02:51:06;66695.34;;;-142.12;100.00
19510;BME280;9896;42.486;26.506;2022-11-18T02:53:35;66695.34;;;-142.12;100.00
19510;BME280;9896;42.486;26.506;2022-11-18T02:56:02;66695.34;;;-142.12;100.00
19510;BME280;9896;42.486;26.506;2022-11-18T02:58:29;66695.34;;;-142.12;100.00
19510;BME280;9896;42.486;26.506;2022-11-18T03:00:57;66695.34;;;-142.12;100.00
19510;BME280;9896;42.486;26.506;2022-11-18T03:03:32;66695.34;;;-142.12;100.00
19510;BME280;9896;42.486;26.506;2022-11-18T03:08:34;66695.34;;;-142.12;100.00
19510;BME280;9896;42.486;26.506;2022-11-18T03:11:25;66695.34;;;-142.12;100.00
19510;BME280;9896;42.486;26.506;2022-11-18T03:17:07;66695.34;;;-142.12;100.00
19510;BME280;9896;42.486;26.506;2022-11-18T03:22:12;66695.34;;;-142.12;100.00
19510;BME280;9896;42.486;26.506;2022-11-18T03:24:50;66695.34;;;-142.12;100.00
19510;BME280;9896;42.486;26.506;2022-11-18T03:27:25;66695.34;;;-142.12;100.00
19510;BME280;9896;42.486;26.506;2022-11-18T03:30:01;66695.34;;;-142.12;100.00
19510;BME280;9896;42.486;26.506;2022-11-18T03:32:30;66695.34;;;-142.12;100.00
19510;BME280;9896;42.486;26.506;2022-11-18T03:35:02;66695.34;;;-142.12;100.00
19510;BME280;9896;42.486;26.506;2022-11-18T03:37:32;66695.34;;;-142.12;100.00
19510;BME280;9896;42.486;26.506;2022-11-18T03:40:03;66695.34;;;-142.12;100.00
19510;BME280;9896;42.486;26.506;2022-11-18T03:42:37;66695.34;;;-142.12;100.00
19510;BME280;9896;42.486;26.506;2022-11-18T03:45:15;66695.34;;;-142.12;100.00
19510;BME280;9896;42.486;26.506;2022-11-18T03:47:49;66695.34;;;-142.12;100.00
19510;BME280;9896;42.486;26.506;2022-11-18T03:50:28;66695.34;;;-142.12;100.00
19510;BME280;9896;42.486;26.506;2022-11-18T03:52:56;66695.34;;;-142.12;100.00
19510;BME280;9896;42.486;26.506;2022-11-18T03:55:27;66695.34;;;-142.12;100.00
19510;BME280;9896;42.486;26.506;2022-11-18T03:58:04;66695.34;;;-142.12;100.00
19510;BME280;9896;42.486;26.506;2022-11-18T04:00:38;66695.34;;;-142.12;100.00
19510;BME280;9896;42.486;26.506;2022-11-18T04:03:05;66695.34;;;-142.12;100.00
19510;BME280;9896;42.486;26.506;2022-11-18T04:05:35;66695.34;;;-142.12;100.00
19510;BME280;9896;42.486;26.506;2022-11-18T04:08:04;66695.34;;;-142.12;100.00
19510;BME280;9896;42.486;26.506;2022-11-18T04:10:42;66695.34;;;-142.12;100.00
19510;BME280;9896;42.486;26.506;2022-11-18T04:15:48;66695.34;;;-142.12;100.00
19510;BME280;9896;42.486;26.506;2022-11-18T04:18:13;66695.34;;;-142.12;100.00
19510;BME280;9896;42.486;26.506;2022-11-18T04:20:39;66695.34;;;-142.12;100.00
19510;BME280;9896;42.486;26.506;2022-11-18T04:23:05;66695.34;;;-142.12;100.00
19510;BME280;9896;42.486;26.506;2022-11-18T04:25:32;66695.34;;;-142.12;100.00
19510;BME280;9896;42.486;26.506;2022-11-18T04:27:57;66695.34;;;-142.12;100.00
19510;BME280;9896;42.486;26.506;2022-11-18T04:30:23;66695.34;;;-142.12;100.00
19510;BME280;9896;42.486;26.506;2022-11-18T04:32:48;66695.34;;;-142.12;100.00
19510;BME280;9896;42.486;26.506;2022-11-18T04:35:15;66695.34;;;-142.12;100.00
19510;BME280;9896;42.486;26.506;2022-11-18T04:37:41;66695.34;;;-142.12;100.00
19510;BME280;9896;42.486;26.506;2022-11-18T04:40:07;66695.34;;;-142.12;100.00
19510;BME280;9896;42.486;26.506;2022-11-18T04:42:32;66695.34;;;-142.12;100.00
19510;BME280;9896;42.486;26.506;2022-11-18T04:44:58;66695.34;;;-142.12;100.00
19510;BME280;9896;42.486;26.506;2022-11-18T04:47:23;66695.34;;;-142.12;100.00
19510;BME280;9896;42.486;26.506;2022-11-18T04:49:49;66695.34;;;-142.12;100.00
19510;BME280;9896;42.486;26.506;2022-11-18T04:52:14;66695.34;;;-142.12;100.00
19510;BME280;9896;42.486;26.506;2022-11-18T04:54:40;66695.34;;;-142.12;100.00
19510;BME280;9896;42.486;26.506;2022-11-18T04:57:05;66695.34;;;-142.12;100.00
19510;BME280;9896;42.486;26.506;2022-11-18T04:59:31;66695.34;;;-142.12;100.00
19510;BME280;9896;42.486;26.506;2022-11-18T05:01:57;66695.34;;;-142.12;100.00
19510;BME280;9896;42.486;26.506;2022-11-18T05:04:27;66695.34;;;-142.12;100.00
19510;BME280;9896;42.486;26.506;2022-11-18T05:06:54;66695.34;;;-142.12;100.00
19510;BME280;9896;42.486;26.506;2022-11-18T05:09:20;66695.34;;;-142.12;100.00
19510;BME280;9896;42.486;26.506;2022-11-18T05:11:45;66695.34;;;-142.12;100.00
19510;BME280;9896;42.486;26.506;2022-11-18T05:14:30;66695.34;;;-142.12;100.00
19510;BME280;9896;42.486;26.506;2022-11-18T05:16:57;66695.34;;;-142.12;100.00
19510;BME280;9896;42.486;26.506;2022-11-18T05:19:23;66695.34;;;-142.12;100.00
19510;BME280;9896;42.486;26.506;2022-11-18T05:21:49;66695.34;;;-142.12;100.00
19510;BME280;9896;42.486;26.506;2022-11-18T05:24:14;66695.34;;;-142.12;100.00
19510;BME280;9896;42.486;26.506;2022-11-18T05:26:41;66695.34;;;-142.12;100.00
19510;BME280;9896;42.486;26.506;2022-11-18T05:29:06;66695.34;;;-142.12;100.00
19510;BME280;9896;42.486;26.506;2022-11-18T05:31:32;66695.34;;;-142.12;100.00
19510;BME280;9896;42.486;26.506;2022-11-18T05:33:57;66695.34;;;-142.12;100.00
19510;BME280;9896;42.486;26.506;2022-11-18T05:36:23;66695.34;;;-142.12;100.00
19510;BME280;9896;42.486;26.506;2022-11-18T05:38:49;66695.34;;;-142.12;100.00
19510;BME280;9896;42.486;26.506;2022-11-18T05:41:16;66695.34;;;-142.12;100.00
19510;BME280;9896;42.486;26.506;2022-11-18T05:44:14;66695.34;;;-142.12;100.00
19510;BME280;9896;42.486;26.506;2022-11-18T05:46:39;66695.34;;;-142.12;100.00
19510;BME280;9896;42.486;26.506;2022-11-18T05:49:05;66695.34;;;-142.12;100.00
19510;BME280;9896;42.486;26.506;2022-11-18T05:51:31;66695.34;;;-142.12;100.00
19510;BME280;9896;42.486;26.506;2022-11-18T05:53:58;66695.34;;;-142.12;100.00
19510;BME280;9896;42.486;26.506;2022-11-18T05:56:37;66695.34;;;-142.12;100.00
19510;BME280;9896;42.486;26.506;2022-11-18T05:59:03;66695.34;;;-142.12;100.00
19510;BME280;9896;42.486;26.506;2022-11-18T06:01:59;66695.34;;;-142.12;100.00
19510;BME280;9896;42.486;26.506;2022-11-18T06:04:38;66695.34;;;-142.12;100.00
19510;BME280;9896;42.486;26.506;2022-11-18T06:07:15;66695.34;;;-142.12;100.00
19510;BME280;9896;42.486;26.506;2022-11-18T06:09:46;66695.34;;;-142.12;100.00
19510;BME280;9896;42.486;26.506;2022-11-18T06:12:15;66695.34;;;-142.12;100.00
19510;BME280;9896;42.486;26.506;2022-11-18T06:14:47;66695.34;;;-142.12;100.00
19510;BME280;9896;42.486;26.506;2022-11-18T06:17:25;66695.34;;;-142.12;100.00
19510;BME280;9896;42.486;26.506;2022-11-18T06:19:51;66695.34;;;-142.12;100.00
19510;BME280;9896;42.486;26.506;2022-11-18T06:22:17;66695.34;;;-142.12;100.00
19510;BME280;9896;42.486;26.506;2022-11-18T06:24:43;66695.34;;;-142.12;100.00
19510;BME280;9896;42.486;26.506;2022-11-18T06:27:09;66695.34;;;-142.12;100.00
19510;BME280;9896;42.486;26.506;2022-11-18T06:29:35;66695.34;;;-142.12;100.00
19510;BME280;9896;42.486;26.506;2022-11-18T06:32:01;66695.34;;;-142.12;100.00
19510;BME280;9896;42.486;26.506;2022-11-18T06:34:26;66695.34;;;-142.12;100.00
19510;BME280;9896;42.486;26.506;2022-11-18T06:36:52;66695.34;;;-142.12;100.00
19510;BME280;9896;42.486;26.506;2022-11-18T06:39:17;66695.34;;;-142.12;100.00
19510;BME280;9896;42.486;26.506;2022-11-18T06:41:43;66695.34;;;-142.12;100.00
19510;BME280;9896;42.486;26.506;2022-11-18T06:44:10;66695.34;;;-142.12;100.00
19510;BME280;9896;42.486;26.506;2022-11-18T06:46:36;66695.34;;;-142.12;100.00
19510;BME280;9896;42.486;26.506;2022-11-18T06:49:20;66695.34;;;-142.12;100.00
19510;BME280;9896;42.486;26.506;2022-11-18T06:51:46;66695.34;;;-142.12;100.00
19510;BME280;9896;42.486;26.506;2022-11-18T06:54:11;66695.34;;;-142.12;100.00
19510;BME280;9896;42.486;26.506;2022-11-18T06:56:37;66695.34;;;-142.12;100.00
19510;BME280;9896;42.486;26.506;2022-11-18T06:59:03;66695.34;;;-142.12;100.00
19510;BME280;9896;42.486;26.506;2022-11-18T07:01:30;66695.34;;;-142.12;100.00
19510;BME280;9896;42.486;26.506;2022-11-18T07:03:58;66695.34;;;-142.12;100.00
19510;BME280;9896;42.486;26.506;2022-11-18T07:06:25;66695.34;;;-142.12;100.00
19510;BME280;9896;42.486;26.506;2022-11-18T07:08:51;66695.34;;;-142.12;100.00
19510;BME280;9896;42.486;26.506;2022-11-18T07:11:20;66695.34;;;-142.12;100.00
19510;BME280;9896;42.486;26.506;2022-11-18T07:13:46;66695.34;;;-142.12;100.00
19510;BME280;9896;42.486;26.506;2022-11-18T07:16:15;66695.34;;;-142.12;100.00
19510;BME280;9896;42.486;26.506;2022-11-18T07:18:42;66695.34;;;-142.12;100.00
19510;BME280;9896;42.486;26.506;2022-11-18T07:21:16;66695.34;;;-142.12;100.00
19510;BME280;9896;42.486;26.506;2022-11-18T07:23:42;66695.34;;;-142.12;100.00
19510;BME280;9896;42.486;26.506;2022-11-18T07:26:08;66695.34;;;-142.12;100.00
19510;BME280;9896;42.486;26.506;2022-11-18T07:28:34;66695.34;;;-142.12;100.00
19510;BME280;9896;42.486;26.506;2022-11-18T07:31:10;66695.34;;;-142.12;100.00
19510;BME280;9896;42.486;26.506;2022-11-18T07:33:36;66695.34;;;-142.12;100.00
19510;BME280;9896;42.486;26.506;2022-11-18T07:36:10;66695.34;;;-142.12;100.00
19510;BME280;9896;42.486;26.506;2022-11-18T07:38:37;66695.34;;;-142.12;100.00
19510;BME280;9896;42.486;26.506;2022-11-18T07:43:29;66695.34;;;-142.12;100.00
19510;BME280;9896;42.486;26.506;2022-11-18T07:45:54;66695.34;;;-142.12;100.00
19510;BME280;9896;42.486;26.506;2022-11-18T07:48:19;66695.34;;;-142.12;100.00
19510;BME280;9896;42.486;26.506;2022-11-18T07:50:45;66695.34;;;-142.12;100.00
19510;BME280;9896;42.486;26.506;2022-11-18T07:53:10;66695.34;;;-142.12;100.00
19510;BME280;9896;42.486;26.506;2022-11-18T07:55:36;66695.34;;;-142.12;100.00
19510;BME280;9896;42.486;26.506;2022-11-18T07:58:01;66695.34;;;-142.12;100.00
19510;BME280;9896;42.486;26.506;2022-11-18T08:00:27;66695.34;;;-142.12;100.00
19510;BME280;9896;42.486;26.506;2022-11-18T08:02:52;66695.34;;;-142.12;100.00
19510;BME280;9896;42.486;26.506;2022-11-18T08:05:18;66695.34;;;-142.12;100.00
19510;BME280;9896;42.486;26.506;2022-11-18T08:07:43;66695.34;;;-142.12;100.00
19510;BME280;9896;42.486;26.506;2022-11-18T08:10:09;66695.34;;;-142.12;100.00
19510;BME280;9896;42.486;26.506;2022-11-18T08:12:34;66695.34;;;-142.12;100.00
19510;BME280;9896;42.486;26.506;2022-11-18T08:15:00;66695.34;;;-142.12;100.00
19510;BME280;9896;42.486;26.506;2022-11-18T08:17:25;66695.34;;;-142.12;100.00
19510;BME280;9896;42.486;26.506;2022-11-18T08:19:51;66695.34;;;-142.12;100.00
19510;BME280;9896;42.486;26.506;2022-11-18T08:22:16;66695.34;;;-142.12;100.00
19510;BME280;9896;42.486;26.506;2022-11-18T08:24:45;66695.34;;;-142.12;100.00
19510;BME280;9896;42.486;26.506;2022-11-18T08:27:12;66695.34;;;-142.12;100.00
19510;BME280;9896;42.486;26.506;2022-11-18T08:29:37;66695.34;;;-142.12;100.00
19510;BME280;9896;42.486;26.506;2022-11-18T08:32:04;66695.34;;;-142.12;100.00
19510;BME280;9896;42.486;26.506;2022-11-18T08:34:29;66695.34;;;-142.12;100.00
19510;BME280;9896;42.486;26.506;2022-11-18T08:36:55;66695.34;;;-142.12;100.00
19510;BME280;9896;42.486;26.506;2022-11-18T08:39:20;66695.34;;;-142.12;100.00
19510;BME280;9896;42.486;26.506;2022-11-18T08:41:46;66695.34;;;-142.12;100.00
19510;BME280;9896;42.486;26.506;2022-11-18T08:44:14;66695.34;;;-142.12;100.00
19510;BME280;9896;42.486;26.506;2022-11-18T08:46:41;66695.34;;;-142.12;100.00
19510;BME280;9896;42.486;26.506;2022-11-18T08:49:07;66695.34;;;-142.12;100.00
19510;BME280;9896;42.486;26.506;2022-11-18T08:51:32;66695.34;;;-142.12;100.00
19510;BME280;9896;42.486;26.506;2022-11-18T08:53:58;66695.34;;;-142.12;100.00
19510;BME280;9896;42.486;26.506;2022-11-18T08:56:24;66695.34;;;-142.12;100.00
19510;BME280;9896;42.486;26.506;2022-11-18T08:58:51;66695.34;;;-142.12;100.00
19510;BME280;9896;42.486;26.506;2022-11-18T09:01:16;66695.34;;;-142.12;100.00
19510;BME280;9896;42.486;26.506;2022-11-18T09:03:42;66695.34;;;-142.12;100.00
19510;BME280;9896;42.486;26.506;2022-11-18T09:06:08;66695.34;;;-142.12;100.00
19510;BME280;9896;42.486;26.506;2022-11-18T09:08:34;66695.34;;;-142.12;100.00
19510;BME280;9896;42.486;26.506;2022-11-18T09:13:31;66695.34;;;-142.12;100.00
19510;BME280;9896;42.486;26.506;2022-11-18T09:15:58;66695.34;;;-142.12;100.00
19510;BME280;9896;42.486;26.506;2022-11-18T09:18:23;66695.34;;;-142.12;100.00
19510;BME280;9896;42.486;26.506;2022-11-18T09:20:56;66695.34;;;-142.12;100.00
19510;BME280;9896;42.486;26.506;2022-11-18T09:23:22;66695.34;;;-142.12;100.00
19510;BME280;9896;42.486;26.506;2022-11-18T09:25:48;66695.34;;;-142.12;100.00
19510;BME280;9896;42.486;26.506;2022-11-18T09:28:20;66695.34;;;-142.12;100.00
19510;BME280;9896;42.486;26.506;2022-11-18T09:30:46;66695.34;;;-142.12;100.00
19510;BME280;9896;42.486;26.506;2022-11-18T09:33:11;66695.34;;;-142.12;100.00
19510;BME280;9896;42.486;26.506;2022-11-18T09:35:41;66695.34;;;-142.12;100.00
19510;BME280;9896;42.486;26.506;2022-11-18T09:38:06;66695.34;;;-142.12;100.00
19510;BME280;9896;42.486;26.506;2022-11-18T09:40:35;66695.34;;;-142.12;100.00
19510;BME280;9896;42.486;26.506;2022-11-18T09:43:17;66695.34;;;-142.12;100.00
19510;BME280;9896;42.486;26.506;2022-11-18T09:45:48;66695.34;;;-142.12;100.00
19510;BME280;9896;42.486;26.506;2022-11-18T09:48:19;66695.34;;;-142.12;100.00
19510;BME280;9896;42.486;26.506;2022-11-18T09:51:09;66695.34;;;-142.12;100.00
19510;BME280;9896;42.486;26.506;2022-11-18T09:53:39;66695.34;;;-142.12;100.00
19510;BME280;9896;42.486;26.506;2022-11-18T09:56:13;66695.34;;;-142.12;100.00
19510;BME280;9896;42.486;26.506;2022-11-18T09:58:40;66695.34;;;-142.12;100.00
19510;BME280;9896;42.486;26.506;2022-11-18T10:01:15;66695.34;;;-142.12;100.00
19510;BME280;9896;42.486;26.506;2022-11-18T10:03:42;66695.34;;;-142.12;100.00
19510;BME280;9896;42.486;26.506;2022-11-18T10:08:44;66695.34;;;-142.12;100.00
19510;BME280;9896;42.486;26.506;2022-11-18T10:11:17;66695.34;;;-142.12;100.00
19510;BME280;9896;42.486;26.506;2022-11-18T10:22:31;66695.34;;;-142.12;100.00
19510;BME280;9896;42.486;26.506;2022-11-18T10:24:58;66695.34;;;-142.12;100.00
19510;BME280;9896;42.486;26.506;2022-11-18T10:27:42;66695.34;;;-142.12;100.00
19510;BME280;9896;42.486;26.506;2022-11-18T10:30:14;66695.34;;;-142.12;100.00
19510;BME280;9896;42.486;26.506;2022-11-18T10:33:03;66695.34;;;-142.12;100.00
19510;BME280;9896;42.486;26.506;2022-11-18T10:35:41;66695.34;;;-142.12;100.00
19510;BME280;9896;42.486;26.506;2022-11-18T10:38:17;66695.34;;;-142.12;100.00
19510;BME280;9896;42.486;26.506;2022-11-18T10:43:44;66695.34;;;-142.12;100.00
19510;BME280;9896;42.486;26.506;2022-11-18T10:49:15;66695.34;;;-142.12;100.00
19510;BME280;9896;42.486;26.506;2022-11-18T10:52:07;66695.34;;;-142.12;100.00
19510;BME280;9896;42.486;26.506;2022-11-18T10:54:34;66695.34;;;-142.12;100.00
19510;BME280;9896;42.486;26.506;2022-11-18T10:57:20;66695.34;;;-142.12;100.00
19510;BME280;9896;42.486;26.506;2022-11-18T10:59:53;66695.34;;;-142.12;100.00
19510;BME280;9896;42.486;26.506;2022-11-18T11:02:28;66695.34;;;-142.12;100.00
19510;BME280;9896;42.486;26.506;2022-11-18T11:04:56;66695.34;;;-142.12;100.00
19510;BME280;9896;42.486;26.506;2022-11-18T11:12:36;66695.34;;;-142.12;100.00
19510;BME280;9896;42.486;26.506;2022-11-18T11:15:08;66695.34;;;-142.12;100.00
19510;BME280;9896;42.486;26.506;2022-11-18T11:17:57;66695.34;;;-142.12;100.00
19510;BME280;9896;42.486;26.506;2022-11-18T11:20:42;66695.34;;;-142.12;100.00
19510;BME280;9896;42.486;26.506;2022-11-18T11:23:12;66695.34;;;-142.12;100.00
19510;BME280;9896;42.486;26.506;2022-11-18T11:26:03;66695.34;;;-142.12;100.00
19510;BME280;9896;42.486;26.506;2022-11-18T11:28:52;66695.34;;;-142.12;100.00
19510;BME280;9896;42.486;26.506;2022-11-18T11:34:27;66695.34;;;-142.12;100.00
19510;BME280;9896;42.486;26.506;2022-11-18T11:39:47;66695.34;;;-142.12;100.00
19510;BME280;9896;42.486;26.506;2022-11-18T11:42:34;66695.34;;;-142.12;100.00
19510;BME280;9896;42.486;26.506;2022-11-18T11:45:19;66695.34;;;-142.12;100.00
19510;BME280;9896;42.486;26.506;2022-11-18T11:51:07;66695.34;;;-142.12;100.00
19510;BME280;9896;42.486;26.506;2022-11-18T12:06:39;66695.34;;;-142.12;100.00
19510;BME280;9896;42.486;26.506;2022-11-18T12:11:55;66695.34;;;-142.12;100.00
19510;BME280;9896;42.486;26.506;2022-11-18T12:14:47;66695.34;;;-142.12;100.00
19510;BME280;9896;42.486;26.506;2022-11-18T12:17:25;66695.34;;;-142.12;100.00
19510;BME280;9896;42.486;26.506;2022-11-18T12:19:54;66695.34;;;-142.12;100.00
19510;BME280;9896;42.486;26.506;2022-11-18T12:22:19;66695.34;;;-142.12;100.00
19510;BME280;9896;42.486;26.506;2022-11-18T12:24:45;66695.34;;;-142.12;100.00
19510;BME280;9896;42.486;26.506;2022-11-18T12:29:59;66695.34;;;-142.12;100.00
19510;BME280;9896;42.486;26.506;2022-11-18T12:42:39;66695.34;;;-142.12;100.00
19510;BME280;9896;42.486;26.506;2022-11-18T12:50:57;66695.34;;;-142.12;100.00
19510;BME280;9896;42.486;26.506;2022-11-18T12:53:41;66695.34;;;-142.12;100.00
19510;BME280;9896;42.486;26.506;2022-11-18T12:58:46;66695.34;;;-142.12;100.00
19510;BME280;9896;42.486;26.506;2022-11-18T13:01:15;66695.34;;;-142.12;100.00
19510;BME280;9896;42.486;26.506;2022-11-18T13:03:41;66695.34;;;-142.12;100.00
19510;BME280;9896;42.486;26.506;2022-11-18T13:06:31;66695.34;;;-142.12;100.00
19510;BME280;9896;42.486;26.506;2022-11-18T13:09:02;66695.34;;;-142.12;100.00
19510;BME280;9896;42.486;26.506;2022-11-18T13:11:30;66695.34;;;-142.12;100.00
19510;BME280;9896;42.486;26.506;2022-11-18T13:14:19;66695.34;;;-142.12;100.00
19510;BME280;9896;42.486;26.506;2022-11-18T13:17:27;66695.34;;;-142.12;100.00
19510;BME280;9896;42.486;26.506;2022-11-18T13:22:51;66695.34;;;-142.12;100.00
19510;BME280;9896;42.486;26.506;2022-11-18T13:25:36;66695.34;;;-142.12;100.00
19510;BME280;9896;42.486;26.506;2022-11-18T13:30:32;66695.34;;;-142.12;100.00
19510;BME280;9896;42.486;26.506;2022-11-18T13:33:00;66695.34;;;-142.12;100.00
19510;BME280;9896;42.486;26.506;2022-11-18T13:35:26;66695.34;;;-142.12;100.00
19510;BME280;9896;42.486;26.506;2022-11-18T13:37:58;66695.34;;;-142.12;100.00
19510;BME280;9896;42.486;26.506;2022-11-18T13:40:30;66695.34;;;-142.12;100.00
19510;BME280;9896;42.486;26.506;2022-11-18T13:42:56;66695.34;;;-142.12;100.00
19510;BME280;9896;42.486;26.506;2022-11-18T13:45:32;66695.34;;;-142.12;100.00
19510;BME280;9896;42.486;26.506;2022-11-18T13:48:08;66695.34;;;-142.12;100.00
19510;BME280;9896;42.486;26.506;2022-11-18T13:50:40;66695.34;;;-142.12;100.00
19510;BME280;9896;42.486;26.506;2022-11-18T13:53:31;66695.34;;;-142.12;100.00
19510;BME280;9896;42.486;26.506;2022-11-18T13:56:04;66695.34;;;-142.12;100.00
19510;BME280;9896;42.486;26.506;2022-11-18T13:58:50;66695.34;;;-142.12;100.00
19510;BME280;9896;42.486;26.506;2022-11-18T14:01:21;66695.34;;;-142.12;100.00
19510;BME280;9896;42.486;26.506;2022-11-18T14:03:55;66695.34;;;-142.12;100.00
19510;BME280;9896;42.486;26.506;2022-11-18T14:09:04;66695.34;;;-142.12;100.00
19510;BME280;9896;42.486;26.506;2022-11-18T14:14:32;66695.34;;;-142.12;100.00
19510;BME280;9896;42.486;26.506;2022-11-18T14:17:23;66695.34;;;-142.12;100.00
19510;BME280;9896;42.486;26.506;2022-11-18T14:19:57;66695.34;;;-142.12;100.00
19510;BME280;9896;42.486;26.506;2022-11-18T14:22:28;66695.34;;;-142.12;100.00
19510;BME280;9896;42.486;26.506;2022-11-18T14:25:14;66695.34;;;-142.12;100.00
19510;BME280;9896;42.486;26.506;2022-11-18T14:27:43;66695.34;;;-142.12;100.00
19510;BME280;9896;42.486;26.506;2022-11-18T14:30:32;66695.34;;;-142.12;100.00
19510;BME280;9896;42.486;26.506;2022-11-18T14:33:12;66695.34;;;-142.12;100.00
19510;BME280;9896;42.486;26.506;2022-11-18T14:35:39;66695.34;;;-142.12;100.00
19510;BME280;9896;42.486;26.506;2022-11-18T14:38:17;66695.34;;;-142.12;100.00
19510;BME280;9896;42.486;26.506;2022-11-18T14:40:43;66695.34;;;-142.12;100.00
19510;BME280;9896;42.486;26.506;2022-11-18T14:43:11;66695.34;;;-142.12;100.00
19510;BME280;9896;42.486;26.506;2022-11-18T14:45:38;66695.34;;;-142.12;100.00
19510;BME280;9896;42.486;26.506;2022-11-18T14:48:04;66695.34;;;-142.12;100.00
19510;BME280;9896;42.486;26.506;2022-11-18T14:50:30;66695.34;;;-142.12;100.00